createdAt,value
2023-04-15T00:01:37.321Z,7.34
2023-04-15T00:04:40.146Z,7.28
2023-04-15T00:07:42.790Z,7.35
2023-04-15T00:10:46.734Z,7.48
2023-04-15T00:13:49.540Z,7.44
2023-04-15T00:16:56.300Z,7.41
2023-04-15T00:20:00.049Z,7.46
2023-04-15T00:23:04.207Z,7.41
2023-04-15T00:26:07.570Z,7.34
2023-04-15T00:29:10.520Z,7.53
2023-04-15T00:32:13.486Z,7.71
2023-04-15T00:35:16.820Z,7.85
2023-04-15T00:38:20.699Z,7.57
2023-04-15T00:41:23.681Z,7.53
2023-04-15T00:44:26.328Z,7.77
2023-04-15T00:47:31.383Z,7.81
2023-04-15T00:50:34.023Z,7.84
2023-04-15T00:53:36.688Z,7.74
2023-04-15T00:56:39.970Z,7.80
2023-04-15T00:59:43.013Z,7.90
2023-04-15T01:02:45.927Z,7.81
2023-04-15T01:05:50.110Z,7.93
2023-04-15T01:08:54.284Z,7.90
2023-04-15T01:11:57.208Z,7.94
2023-04-15T01:15:00.879Z,8.07
2023-04-15T01:18:03.615Z,8.00
2023-04-15T01:21:08.174Z,8.03
2023-04-15T01:24:11.823Z,7.96
2023-04-15T01:27:14.961Z,8.01
2023-04-15T01:30:17.795Z,8.05
2023-04-15T01:33:20.684Z,8.12
2023-04-15T01:36:23.359Z,8.23
2023-04-15T01:39:29.549Z,8.20
2023-04-15T01:42:33.796Z,8.14
2023-04-15T01:45:36.438Z,8.12
2023-04-15T01:48:40.037Z,8.18
2023-04-15T01:51:42.639Z,8.13
2023-04-15T01:54:46.707Z,8.06
2023-04-15T01:57:49.385Z,8.16
2023-04-15T02:00:52.853Z,8.13
2023-04-15T02:03:55.518Z,8.14
2023-04-15T02:06:58.233Z,8.11
2023-04-15T02:10:00.774Z,8.12
2023-04-15T02:13:03.534Z,8.10
2023-04-15T02:16:16.774Z,8.19
2023-04-15T02:19:20.194Z,8.00
2023-04-15T02:22:23.190Z,8.20
2023-04-15T02:25:25.869Z,8.16
2023-04-15T02:28:28.587Z,8.08
2023-04-15T02:31:34.170Z,8.14
2023-04-15T02:34:38.507Z,8.24
2023-04-15T02:37:43.828Z,8.20
2023-04-15T02:40:49.695Z,8.19
2023-04-15T02:43:57.311Z,8.14
2023-04-15T02:46:59.925Z,8.39
2023-04-15T02:50:04.065Z,8.21
2023-04-15T02:53:07.556Z,8.40
2023-04-15T02:56:10.358Z,8.47
2023-04-15T02:59:13.481Z,8.44
2023-04-15T03:02:17.454Z,8.51
2023-04-15T03:05:20.550Z,8.46
2023-04-15T03:08:26.623Z,8.44
2023-04-15T03:11:29.759Z,8.58
2023-04-15T03:14:32.629Z,8.60
2023-04-15T03:17:35.826Z,8.47
2023-04-15T03:20:39.053Z,8.50
2023-04-15T03:23:42.117Z,8.42
2023-04-15T03:26:44.989Z,8.53
2023-04-15T03:29:51.743Z,8.60
2023-04-15T03:32:56.003Z,8.60
2023-04-15T03:35:58.781Z,8.62
2023-04-15T03:39:02.605Z,8.62
2023-04-15T03:42:05.649Z,8.77
2023-04-15T03:45:08.560Z,8.67
2023-04-15T03:48:17.597Z,8.65
2023-04-15T03:51:20.750Z,8.55
2023-04-15T03:54:23.263Z,8.50
2023-04-15T03:57:25.810Z,8.48
2023-04-15T04:00:28.731Z,8.46
2023-04-15T04:03:32.051Z,8.50
2023-04-15T04:06:34.735Z,8.50
2023-04-15T04:09:39.275Z,8.61
2023-04-15T04:12:41.847Z,8.74
2023-04-15T04:15:44.665Z,8.70
2023-04-15T04:18:47.195Z,8.76
2023-04-15T04:21:50.174Z,8.98
2023-04-15T04:24:52.866Z,9.02
2023-04-15T04:27:56.486Z,8.98
2023-04-15T04:31:00.629Z,9.09
2023-04-15T04:34:03.216Z,9.08
2023-04-15T04:37:05.970Z,9.19
2023-04-15T04:40:10.754Z,9.14
2023-04-15T04:43:14.736Z,9.16
2023-04-15T04:46:17.495Z,9.19
2023-04-15T04:49:20.117Z,9.25
2023-04-15T04:52:23.194Z,9.40
2023-04-15T04:55:25.830Z,9.50
2023-04-15T04:58:28.274Z,9.51
2023-04-15T05:01:31.058Z,9.49
2023-04-15T05:04:34.562Z,9.45
2023-04-15T05:07:37.306Z,9.64
2023-04-15T05:10:40.004Z,9.71
2023-04-15T05:13:42.798Z,9.54
2023-04-15T05:16:45.256Z,9.64
2023-04-15T05:19:48.268Z,9.84
2023-04-15T05:22:50.895Z,10.02
2023-04-15T05:25:53.635Z,9.96
2023-04-15T05:28:56.219Z,10.12
2023-04-15T05:31:59.527Z,9.75
2023-04-15T05:35:02.174Z,9.74
2023-04-15T05:38:04.787Z,9.53
2023-04-15T05:41:07.586Z,9.51
2023-04-15T05:44:10.769Z,9.56
2023-04-15T05:47:13.315Z,9.43
2023-04-15T05:50:17.023Z,9.67
2023-04-15T05:53:19.782Z,9.70
2023-04-15T05:56:22.414Z,9.58
2023-04-15T05:59:25.525Z,9.67
2023-04-15T06:02:28.137Z,9.73
2023-04-15T06:05:30.723Z,9.63
2023-04-15T06:08:33.361Z,9.71
2023-04-15T06:11:36.388Z,9.74
2023-04-15T06:14:39.523Z,10.21
2023-04-15T06:17:42.060Z,10.28
2023-04-15T06:20:44.664Z,10.56
2023-04-15T06:23:47.530Z,10.83
2023-04-15T06:26:51.391Z,11.19
2023-04-15T06:29:54.827Z,11.70
2023-04-15T06:32:57.673Z,11.79
2023-04-15T06:36:00.247Z,11.63
2023-04-15T06:39:03.939Z,11.26
2023-04-15T06:42:06.899Z,11.15
2023-04-15T06:45:10.292Z,11.01
2023-04-15T06:48:13.199Z,11.28
2023-04-15T06:51:17.170Z,11.26
2023-04-15T06:54:23.871Z,11.03
2023-04-15T06:57:26.491Z,11.12
2023-04-15T07:00:29.292Z,11.26
2023-04-15T07:03:33.015Z,11.29
2023-04-15T07:06:35.806Z,11.55
2023-04-15T07:09:38.845Z,11.62
2023-04-15T07:12:41.655Z,11.59
2023-04-15T07:15:44.924Z,11.31
2023-04-15T07:18:47.557Z,11.21
2023-04-15T07:21:50.338Z,11.17
2023-04-15T07:24:52.781Z,11.38
2023-04-15T07:27:55.660Z,11.88
2023-04-15T07:30:58.307Z,12.01
2023-04-15T07:34:01.169Z,12.19
2023-04-15T07:37:04.064Z,12.39
2023-04-15T07:40:07.559Z,12.91
2023-04-15T07:43:10.161Z,13.41
2023-04-15T07:46:12.889Z,13.45
2023-04-15T07:49:15.822Z,13.66
2023-04-15T07:52:19.172Z,13.67
2023-04-15T07:55:23.482Z,13.96
2023-04-15T07:58:26.360Z,13.77
2023-04-15T08:01:28.848Z,13.76
2023-04-15T08:04:32.639Z,13.93
2023-04-15T08:07:37.863Z,13.95
2023-04-15T08:10:42.352Z,14.34
2023-04-15T08:13:44.861Z,14.33
2023-04-15T08:16:47.769Z,14.50
2023-04-15T08:19:50.413Z,13.97
2023-04-15T08:22:53.839Z,13.64
2023-04-15T08:25:56.396Z,13.64
2023-04-15T08:28:59.573Z,14.06
2023-04-15T08:32:02.805Z,14.23
2023-04-15T08:35:05.758Z,14.75
2023-04-15T08:38:09.356Z,14.29
2023-04-15T08:41:20.760Z,13.86
2023-04-15T08:44:25.662Z,13.67
2023-04-15T08:47:31.605Z,13.63
2023-04-15T08:50:34.969Z,14.19
2023-04-15T08:53:38.739Z,14.88
2023-04-15T08:56:42.718Z,15.31
2023-04-15T08:59:45.576Z,14.43
2023-04-15T09:02:48.794Z,14.88
2023-04-15T09:05:53.294Z,15.13
2023-04-15T09:08:56.588Z,15.22
2023-04-15T09:12:01.630Z,15.03
2023-04-15T09:15:04.320Z,14.90
2023-04-15T09:18:07.228Z,15.05
2023-04-15T09:21:15.018Z,15.85
2023-04-15T09:24:17.836Z,15.68
2023-04-15T09:27:21.057Z,15.17
2023-04-15T09:30:24.402Z,15.40
2023-04-15T09:33:29.364Z,16.23
2023-04-15T09:36:54.057Z,16.30
2023-04-15T09:39:57.443Z,17.39
2023-04-15T09:43:02.119Z,16.52
2023-04-15T09:46:04.867Z,17.33
2023-04-15T09:49:09.113Z,17.60
2023-04-15T09:52:14.119Z,17.68
2023-04-15T09:55:18.914Z,18.14
2023-04-15T09:58:23.675Z,16.79
2023-04-15T10:01:26.505Z,15.39
2023-04-15T10:04:30.513Z,15.23
2023-04-15T10:07:34.048Z,13.72
2023-04-15T10:10:37.208Z,13.72
2023-04-15T10:13:40.652Z,14.54
2023-04-15T10:16:49.199Z,14.02
2023-04-15T10:19:54.086Z,13.16
2023-04-15T10:22:58.155Z,12.79
2023-04-15T10:26:01.354Z,12.99
2023-04-15T10:29:05.015Z,13.85
2023-04-15T10:32:08.194Z,16.45
2023-04-15T10:35:12.054Z,16.22
2023-04-15T10:38:33.572Z,14.91
2023-04-15T10:41:37.944Z,14.95
2023-04-15T10:44:48.597Z,16.15
2023-04-15T10:47:59.061Z,15.09
2023-04-15T10:51:03.838Z,13.87
2023-04-15T10:54:13.546Z,13.34
2023-04-15T10:57:21.432Z,12.46
2023-04-15T11:00:30.135Z,12.09
2023-04-15T11:03:42.727Z,12.17
2023-04-15T11:06:46.017Z,12.18
2023-04-15T11:09:48.639Z,12.54
2023-04-15T11:12:53.751Z,13.19
2023-04-15T11:15:58.441Z,13.50
2023-04-15T11:19:01.821Z,13.83
2023-04-15T11:22:10.301Z,14.17
2023-04-15T11:25:26.131Z,15.01
2023-04-15T11:28:31.004Z,15.13
2023-04-15T11:31:36.358Z,15.52
2023-04-15T11:34:39.096Z,16.00
2023-04-15T11:37:41.975Z,16.45
2023-04-15T11:40:46.993Z,16.43
2023-04-15T11:43:51.274Z,16.34
2023-04-15T11:46:56.450Z,15.91
2023-04-15T11:50:23.417Z,16.70
2023-04-15T11:53:41.026Z,15.12
2023-04-15T11:56:50.910Z,15.32
2023-04-15T11:59:55.433Z,15.88
2023-04-15T12:03:30.626Z,15.24
2023-04-15T12:06:37.413Z,14.64
2023-04-15T12:09:40.220Z,15.29
2023-04-15T12:12:42.864Z,16.41
2023-04-15T12:15:45.458Z,18.38
2023-04-15T12:18:53.514Z,18.60
2023-04-15T12:22:02.550Z,19.18
2023-04-15T12:25:05.591Z,17.64
2023-04-15T12:28:12.261Z,18.86
2023-04-15T12:31:15.161Z,18.87
2023-04-15T12:34:18.825Z,15.82
2023-04-15T12:37:22.073Z,14.88
2023-04-15T12:40:24.791Z,14.59
2023-04-15T12:43:27.836Z,14.84
2023-04-15T12:46:30.686Z,14.42
2023-04-15T12:49:33.790Z,14.19
2023-04-15T12:52:36.440Z,13.81
2023-04-15T12:55:39.041Z,14.09
2023-04-15T12:58:43.205Z,14.30
2023-04-15T13:01:47.880Z,14.06
2023-04-15T13:04:50.956Z,14.32
2023-04-15T13:07:53.720Z,14.40
2023-04-15T13:10:56.854Z,14.07
2023-04-15T13:14:07.842Z,13.80
2023-04-15T13:17:11.633Z,13.52
2023-04-15T13:20:14.345Z,13.65
2023-04-15T13:23:17.777Z,14.19
2023-04-15T13:26:20.652Z,14.50
2023-04-15T13:29:23.406Z,14.47
2023-04-15T13:32:26.425Z,14.30
2023-04-15T13:35:29.251Z,13.98
2023-04-15T13:38:31.820Z,13.73
2023-04-15T13:41:34.440Z,13.44
2023-04-15T13:44:37.454Z,13.26
2023-04-15T13:47:41.373Z,13.41
2023-04-15T13:50:45.557Z,13.53
2023-04-15T13:53:48.338Z,13.96
2023-04-15T13:56:51.613Z,14.18
2023-04-15T13:59:54.364Z,14.01
2023-04-15T14:02:58.831Z,14.03
2023-04-15T14:06:02.310Z,14.87
2023-04-15T14:09:05.644Z,16.47
2023-04-15T14:12:08.540Z,17.96
2023-04-15T14:15:13.027Z,16.20
2023-04-15T14:18:15.722Z,15.01
2023-04-15T14:21:18.486Z,13.96
2023-04-15T14:24:21.347Z,13.61
2023-04-15T14:27:23.903Z,13.32
2023-04-15T14:30:27.304Z,13.13
2023-04-15T14:33:32.862Z,13.06
2023-04-15T14:36:36.177Z,13.14
2023-04-15T14:39:40.140Z,13.30
2023-04-15T14:42:43.245Z,13.52
2023-04-15T14:45:46.851Z,13.46
2023-04-15T14:48:50.965Z,13.25
2023-04-15T14:51:55.072Z,13.31
2023-04-15T14:54:58.067Z,13.22
2023-04-15T14:58:02.504Z,13.10
2023-04-15T15:01:05.807Z,13.26
2023-04-15T15:04:11.303Z,13.39
2023-04-15T15:07:13.937Z,13.40
2023-04-15T15:10:16.633Z,13.60
2023-04-15T15:13:39.517Z,13.25
2023-04-15T15:16:42.930Z,13.05
2023-04-15T15:19:45.963Z,12.90
2023-04-15T15:22:49.020Z,12.77
2023-04-15T15:25:51.799Z,12.57
2023-04-15T15:28:54.954Z,12.50
2023-04-15T15:31:58.070Z,12.48
2023-04-15T15:35:00.844Z,12.44
2023-04-15T15:38:03.667Z,12.45
2023-04-15T15:41:06.776Z,12.40
2023-04-15T15:44:09.317Z,12.40
2023-04-15T15:47:12.339Z,12.30
2023-04-15T15:50:15.828Z,12.28
2023-04-15T15:53:21.185Z,12.28
2023-04-15T15:56:23.890Z,12.33
2023-04-15T15:59:26.532Z,12.10
2023-04-15T16:02:52.245Z,12.06
2023-04-15T16:05:53.750Z,11.92
2023-04-15T16:08:58.094Z,11.92
2023-04-15T16:12:02.299Z,11.84
2023-04-15T16:15:06.229Z,11.76
2023-04-15T16:18:08.995Z,11.92
2023-04-15T16:21:11.715Z,11.96
2023-04-15T16:24:15.348Z,11.98
2023-04-15T16:27:18.146Z,12.02
2023-04-15T16:30:22.182Z,12.04
2023-04-15T16:33:24.909Z,11.99
2023-04-15T16:36:27.703Z,12.00
2023-04-15T16:39:30.885Z,11.91
2023-04-15T16:42:34.451Z,11.81
2023-04-15T16:45:37.614Z,11.92
2023-04-15T16:48:40.233Z,11.94
2023-04-15T16:51:43.475Z,11.79
2023-04-15T16:54:46.874Z,11.78
2023-04-15T16:58:02.401Z,11.78
2023-04-15T17:01:06.695Z,11.77
2023-04-15T17:04:10.021Z,11.76
2023-04-15T17:07:12.746Z,11.68
2023-04-15T17:10:16.333Z,11.55
2023-04-15T17:13:19.102Z,11.42
2023-04-15T17:16:22.162Z,11.37
2023-04-15T17:19:26.900Z,11.32
2023-04-15T17:22:30.031Z,11.24
2023-04-15T17:25:32.536Z,11.07
2023-04-15T17:28:35.454Z,11.03
2023-04-15T17:31:38.307Z,10.85
2023-04-15T17:34:49.937Z,10.85
2023-04-15T17:37:54.121Z,10.83
2023-04-15T17:40:57.080Z,10.80
2023-04-15T17:44:00.650Z,10.75
2023-04-15T17:47:03.761Z,10.75
2023-04-15T17:50:08.565Z,10.71
2023-04-15T17:53:11.611Z,10.60
2023-04-15T17:56:15.068Z,10.67
2023-04-15T17:59:18.972Z,10.67
2023-04-15T18:02:22.913Z,10.69
2023-04-15T18:05:26.154Z,10.71
2023-04-15T18:08:29.756Z,10.64
2023-04-15T18:11:33.726Z,10.58
2023-04-15T18:14:36.740Z,10.62
2023-04-15T18:17:39.852Z,10.67
2023-04-15T18:20:43.527Z,10.69
2023-04-15T18:23:46.859Z,10.62
2023-04-15T18:26:50.057Z,10.60
2023-04-15T18:29:53.548Z,10.56
2023-04-15T18:32:56.831Z,10.63
2023-04-15T18:36:00.225Z,10.66
2023-04-15T18:39:04.897Z,10.61
2023-04-15T18:42:08.726Z,10.60
2023-04-15T18:45:32.895Z,10.62
2023-04-15T18:48:36.393Z,10.56
2023-04-15T18:51:40.035Z,10.53
2023-04-15T18:54:44.505Z,10.42
2023-04-15T18:57:48.394Z,10.45
2023-04-15T19:00:52.421Z,10.44
2023-04-15T19:03:57.917Z,10.37
2023-04-15T19:07:02.897Z,10.35
2023-04-15T19:10:06.272Z,10.38
2023-04-15T19:13:09.341Z,10.36
2023-04-15T19:16:13.921Z,10.33
2023-04-15T19:19:17.460Z,10.34
2023-04-15T19:22:21.253Z,10.35
2023-04-15T19:25:24.568Z,10.41
2023-04-15T19:28:28.832Z,10.47
2023-04-15T19:31:32.533Z,10.51
2023-04-15T19:34:37.667Z,10.53
2023-04-15T19:37:42.142Z,10.54
2023-04-15T19:40:45.394Z,10.54
2023-04-15T19:43:50.377Z,10.60
2023-04-15T19:46:56.736Z,10.56
2023-04-15T19:50:01.621Z,10.63
2023-04-15T19:53:05.437Z,10.70
2023-04-15T19:56:12.566Z,10.74
2023-04-15T19:59:15.684Z,10.60
2023-04-15T20:02:19.614Z,10.60
2023-04-15T20:05:23.779Z,10.67
2023-04-15T20:08:27.367Z,10.69
2023-04-15T20:12:47.931Z,10.71
2023-04-15T20:14:54.457Z,10.83
2023-04-15T20:17:57.682Z,10.76
2023-04-15T20:21:01.177Z,10.67
2023-04-15T20:24:08.147Z,10.68
2023-04-15T20:27:13.432Z,10.68
2023-04-15T20:30:17.067Z,10.63
2023-04-15T20:33:20.493Z,10.63
2023-04-15T20:36:24.232Z,10.56
2023-04-15T20:39:27.788Z,10.63
2023-04-15T20:42:37.408Z,10.52
2023-04-15T20:45:40.640Z,10.55
2023-04-15T20:48:43.663Z,10.52
2023-04-15T20:51:46.735Z,10.58
2023-04-15T20:54:49.835Z,10.64
2023-04-15T20:57:52.503Z,10.56
2023-04-15T21:00:56.232Z,10.53
2023-04-15T21:03:59.318Z,10.51
2023-04-15T21:07:01.989Z,10.48
2023-04-15T21:10:05.022Z,10.28
2023-04-15T21:13:08.048Z,10.23
2023-04-15T21:16:11.110Z,10.27
2023-04-15T21:19:14.113Z,10.29
2023-04-15T21:22:16.763Z,10.43
2023-04-15T21:25:19.397Z,10.43
2023-04-15T21:28:22.670Z,10.28
2023-04-15T21:31:25.387Z,10.24
2023-04-15T21:34:28.072Z,10.10
2023-04-15T21:37:30.857Z,10.12
2023-04-15T21:40:33.558Z,10.24
2023-04-15T21:43:37.246Z,10.20
2023-04-15T21:46:39.847Z,10.08
2023-04-15T21:49:42.424Z,10.06
2023-04-15T21:52:45.318Z,10.05
2023-04-15T21:55:48.131Z,10.06
2023-04-15T21:58:51.382Z,10.22
2023-04-15T22:01:54.115Z,10.23
2023-04-15T22:04:56.926Z,10.18
2023-04-15T22:08:05.868Z,10.16
2023-04-15T22:11:09.406Z,10.13
2023-04-15T22:14:12.295Z,10.02
2023-04-15T22:17:15.234Z,10.00
2023-04-15T22:20:19.247Z,10.00
2023-04-15T22:23:22.016Z,10.04
2023-04-15T22:26:24.602Z,10.08
2023-04-15T22:29:27.453Z,10.03
2023-04-15T22:32:30.048Z,9.96
2023-04-15T22:35:32.790Z,10.03
2023-04-15T22:38:35.422Z,9.95
2023-04-15T22:41:38.037Z,10.10
2023-04-15T22:44:40.844Z,10.09
2023-04-15T22:47:46.390Z,10.08
2023-04-15T22:50:50.781Z,10.02
2023-04-15T22:53:53.662Z,10.16
2023-04-15T22:56:57.529Z,10.04
2023-04-15T23:00:00.662Z,9.79
2023-04-15T23:03:03.494Z,9.71
2023-04-15T23:06:06.613Z,9.69
2023-04-15T23:09:09.457Z,9.63
2023-04-15T23:12:13.793Z,9.57
2023-04-15T23:15:16.673Z,9.57
2023-04-15T23:18:19.307Z,9.45
2023-04-15T23:21:23.200Z,9.52
2023-04-15T23:24:26.935Z,9.61
2023-04-15T23:27:29.704Z,9.56
2023-04-15T23:30:32.260Z,9.61
2023-04-15T23:33:35.231Z,9.44
2023-04-15T23:36:38.274Z,9.45
2023-04-15T23:39:40.772Z,9.47
2023-04-15T23:42:43.625Z,9.49
2023-04-15T23:45:46.480Z,9.27
2023-04-15T23:48:49.785Z,9.14
2023-04-15T23:51:52.675Z,9.13
2023-04-15T23:54:56.490Z,9.13
2023-04-15T23:57:59.770Z,9.24
